Forside
METAR-TAF:

METAR-TAF

Lufthavne :

José Martí Internationale Lufthavn

Havana, Cuba

Breddekreds: 22-59N, længdekreds: 082-24W, højde: 59 m

Aktuelle vejr

Denne rapport blev lavet for 1 time og 5 minutter siden, kl. 02:55 UTC
Vind 3 kt fra sydvest
Temperatur 23°C
Fugtighed 94%
Tryk 1015 hPa
Sigt: 9000 m
skyfri

METAR: MUHA 230255Z 23003KT 9000 SKC 23/22 Q1015

Tid: 00:00 (04:00 UTC)

Vejrudsigter

Denne rapport blev lavet for 5 timer og 0 minutter siden, kl. 23:00 UTC
Foreløbig gælder fra 23 på 00 UTC til 23 på 24 UTC
Vind 6 kt fra nordvest
Sigt: 9000 m
Nogle få skyer i en højde af 3000 ft
ændring
fra 23 på 03 UTC til 23 på 05 UTC
Vind 3 kt fra varierende retninger
ændring
fra 23 på 15 UTC til 23 på 17 UTC
Vind 6 kt fra vest
Nogle få skyer i en højde af 3000 ft
ændring
fra 23 på 21 UTC til 23 på 23 UTC
Vind 8 kt fra nordvest
Brudte skyer i en højde af 3000 ft

TAF: MUHA 222300Z 2300/2324 32006KT 9000 FEW030 BECMG 2303/2305 VRB03KT BECMG 2315/2317 27006KT FEW030 BECMG 2321/2323 31008KT BKN030

Vejrobservationer og prognoser fra mere end 4000 lufthavne (METAR og TAF).

De gule og røde prikker repræsenterer de meteorologiske stationer.

Flyt musen over at se navnet på stationen.

Så klik over at se vejr observationer og prognoser.

At skifte det kort: Klik på de grønne knapper med et sort kors for at zoome ind; på den grønne knap med en bindestreg for at zoome ud; eller på de grønne pile for tilstødende kort.


METAR-TAF: